Accueil
METAR-TAF:

METAR-TAF

Aéroports :

Tanegashima, Japon

latitude: 30-33N, longitude: 130-57E, altitude: 92 m

Observation

Le bulletin a été fait il y a 2 heures et 36 minutes, à 09:00 UTC
Vent 8 kt de nord-ouest
Température 10°C
Humidité 76%
Pression 1020 hPa
Visibilité: 8000 m
Quelques nuages à une hauteur de 2000 ft
Nuages fragmentés

METAR: RJFG 200900Z 31008KT 8000 FEW020 BKN/// 10/06 Q1020

Heure: 20:36 (11:36 UTC)


TAF: absent

Observations et prévisions météorologiques de plus de 4000 aéroports (messages METAR et TAF).

Les stations disponibles sont représentées par des disques jaunes et rouges sur la carte.

Passer la souris dessus pour voir le nom de la station.

Cliquer dessus pour voir les observations et prévisions météorologiques.

Pour changer de carte: cliquez sur les boutons verts avec une croix noire pour zoomer, sur le bouton vert avec un tiret pour effectuer un zoom arrière, ou sur les flèches vertes pour les cartes adjacentes.


METAR-TAF: